sensor_id;sensor_type;location;lat;lon;timestamp;pressure;altitude;pressure_sealevel;temperature;humidity
44481;BME280;30184;42.018;23.670;2023-02-04T00:01:54;91324.78;;;-1.50;71.72
44481;BME280;30184;42.018;23.670;2023-02-04T00:04:22;91310.97;;;-1.59;71.29
44481;BME280;30184;42.018;23.670;2023-02-04T00:06:51;91188.66;;;-2.45;71.30
44481;BME280;30184;42.018;23.670;2023-02-04T00:09:21;91314.03;;;-1.57;71.87
44481;BME280;30184;42.018;23.670;2023-02-04T00:11:50;91323.94;;;-1.58;71.93
44481;BME280;30184;42.018;23.670;2023-02-04T00:14:18;91323.59;;;-1.53;72.60
44481;BME280;30184;42.018;23.670;2023-02-04T00:16:49;91290.75;;;-1.64;72.33
44481;BME280;30184;42.018;23.670;2023-02-04T00:19:18;91313.31;;;-1.54;72.08
44481;BME280;30184;42.018;23.670;2023-02-04T00:21:47;91309.19;;;-1.48;72.15
44481;BME280;30184;42.018;23.670;2023-02-04T00:24:16;91302.75;;;-1.47;72.12
44481;BME280;30184;42.018;23.670;2023-02-04T00:26:44;91278.09;;;-1.44;72.32
44481;BME280;30184;42.018;23.670;2023-02-04T00:29:15;91167.91;;;-2.89;72.10
44481;BME280;30184;42.018;23.670;2023-02-04T00:31:47;91065.34;;;-3.01;71.68
44481;BME280;30184;42.018;23.670;2023-02-04T00:34:17;91269.41;;;-1.41;72.30
44481;BME280;30184;42.018;23.670;2023-02-04T00:36:46;91261.34;;;-1.44;72.32
44481;BME280;30184;42.018;23.670;2023-02-04T00:39:16;91273.97;;;-1.38;72.30
44481;BME280;30184;42.018;23.670;2023-02-04T00:41:45;91350.44;;;-1.35;72.03
44481;BME280;30184;42.018;23.670;2023-02-04T00:44:14;91270.25;;;-1.33;71.53
44481;BME280;30184;42.018;23.670;2023-02-04T00:46:43;91260.28;;;-1.40;71.62
44481;BME280;30184;42.018;23.670;2023-02-04T00:49:12;91155.78;;;-2.34;71.30
44481;BME280;30184;42.018;23.670;2023-02-04T00:51:42;91209.13;;;-1.60;71.99
44481;BME280;30184;42.018;23.670;2023-02-04T00:54:13;91265.75;;;-1.26;72.36
44481;BME280;30184;42.018;23.670;2023-02-04T00:56:43;91260.06;;;-1.24;72.70
44481;BME280;30184;42.018;23.670;2023-02-04T00:59:12;91255.53;;;-1.24;72.50
44481;BME280;30184;42.018;23.670;2023-02-04T01:01:41;91240.91;;;-1.37;72.88
44481;BME280;30184;42.018;23.670;2023-02-04T01:04:13;91202.38;;;-1.83;72.56
44481;BME280;30184;42.018;23.670;2023-02-04T01:06:44;91213.03;;;-1.50;72.96
44481;BME280;30184;42.018;23.670;2023-02-04T01:09:13;91206.09;;;-1.58;72.86
44481;BME280;30184;42.018;23.670;2023-02-04T01:11:42;91243.03;;;-1.16;72.69
44481;BME280;30184;42.018;23.670;2023-02-04T01:14:11;91212.94;;;-1.24;72.90
44481;BME280;30184;42.018;23.670;2023-02-04T01:16:40;91227.84;;;-1.16;72.48
44481;BME280;30184;42.018;23.670;2023-02-04T01:19:10;91035.91;;;-2.58;71.62
44481;BME280;30184;42.018;23.670;2023-02-04T01:21:41;91215.25;;;-1.19;71.91
44481;BME280;30184;42.018;23.670;2023-02-04T01:24:12;91234.59;;;-1.59;72.09
44481;BME280;30184;42.018;23.670;2023-02-04T01:26:59;90977.69;;;-2.74;71.97
44481;BME280;30184;42.018;23.670;2023-02-04T01:29:28;91205.53;;;-1.04;71.96
44481;BME280;30184;42.018;23.670;2023-02-04T01:31:57;91210.47;;;-1.02;71.98
44481;BME280;30184;42.018;23.670;2023-02-04T01:34:27;91205.16;;;-1.02;72.28
44481;BME280;30184;42.018;23.670;2023-02-04T01:36:57;91238.34;;;-1.30;73.01
44481;BME280;30184;42.018;23.670;2023-02-04T01:39:28;91195.59;;;-1.07;73.64
44481;BME280;30184;42.018;23.670;2023-02-04T01:41:57;91206.28;;;-1.03;73.79
44481;BME280;30184;42.018;23.670;2023-02-04T01:44:27;91194.09;;;-1.04;73.86
44481;BME280;30184;42.018;23.670;2023-02-04T01:46:56;91228.19;;;-1.17;74.92
44481;BME280;30184;42.018;23.670;2023-02-04T01:49:26;91184.59;;;-1.05;75.32
44481;BME280;30184;42.018;23.670;2023-02-04T01:51:56;91179.22;;;-1.09;75.74
44481;BME280;30184;42.018;23.670;2023-02-04T01:54:25;91101.56;;;-1.96;75.63
44481;BME280;30184;42.018;23.670;2023-02-04T01:56:58;91174.72;;;-1.42;76.09
44481;BME280;30184;42.018;23.670;2023-02-04T01:59:27;91193.88;;;-1.26;76.68
44481;BME280;30184;42.018;23.670;2023-02-04T02:01:57;91187.03;;;-1.27;77.04
44481;BME280;30184;42.018;23.670;2023-02-04T02:04:29;91152.03;;;-2.29;78.02
44481;BME280;30184;42.018;23.670;2023-02-04T02:07:02;91097.34;;;-2.30;78.38
44481;BME280;30184;42.018;23.670;2023-02-04T02:09:33;91184.31;;;-1.34;78.98
44481;BME280;30184;42.018;23.670;2023-02-04T02:12:06;91168.75;;;-1.32;79.12
44481;BME280;30184;42.018;23.670;2023-02-04T02:14:35;91143.75;;;-1.57;78.98
44481;BME280;30184;42.018;23.670;2023-02-04T02:17:04;91164.53;;;-1.33;79.53
44481;BME280;30184;42.018;23.670;2023-02-04T02:19:36;91226.47;;;-1.36;79.54
44481;BME280;30184;42.018;23.670;2023-02-04T02:22:10;91050.63;;;-2.65;80.05
44481;BME280;30184;42.018;23.670;2023-02-04T02:24:42;91167.53;;;-1.38;80.74
44481;BME280;30184;42.018;23.670;2023-02-04T02:27:11;91145.09;;;-1.40;81.04
44481;BME280;30184;42.018;23.670;2023-02-04T02:29:41;91143.88;;;-1.46;80.94
44481;BME280;30184;42.018;23.670;2023-02-04T02:32:12;91144.63;;;-1.46;81.35
44481;BME280;30184;42.018;23.670;2023-02-04T02:34:42;91126.06;;;-1.42;81.49
44481;BME280;30184;42.018;23.670;2023-02-04T02:37:12;91147.34;;;-1.42;81.82
44481;BME280;30184;42.018;23.670;2023-02-04T02:39:44;91128.31;;;-1.44;82.32
44481;BME280;30184;42.018;23.670;2023-02-04T02:42:15;91063.00;;;-1.79;82.29
44481;BME280;30184;42.018;23.670;2023-02-04T02:44:46;91065.38;;;-2.07;82.23
44481;BME280;30184;42.018;23.670;2023-02-04T02:47:18;91091.72;;;-1.58;82.33
44481;BME280;30184;42.018;23.670;2023-02-04T02:49:49;91074.06;;;-1.73;82.51
44481;BME280;30184;42.018;23.670;2023-02-04T02:52:20;91105.78;;;-1.54;82.64
44481;BME280;30184;42.018;23.670;2023-02-04T02:54:53;91112.84;;;-1.32;83.18
44481;BME280;30184;42.018;23.670;2023-02-04T02:57:22;91100.63;;;-1.40;83.01
44481;BME280;30184;42.018;23.670;2023-02-04T02:59:52;91110.19;;;-1.28;83.02
44481;BME280;30184;42.018;23.670;2023-02-04T03:02:22;91093.78;;;-1.37;82.87
44481;BME280;30184;42.018;23.670;2023-02-04T03:04:54;91109.84;;;-1.27;83.08
44481;BME280;30184;42.018;23.670;2023-02-04T03:07:29;91091.16;;;-1.34;83.00
44481;BME280;30184;42.018;23.670;2023-02-04T03:10:00;91095.41;;;-1.26;83.06
44481;BME280;30184;42.018;23.670;2023-02-04T03:12:32;91073.97;;;-1.43;83.12
44481;BME280;30184;42.018;23.670;2023-02-04T03:15:05;91073.97;;;-1.43;83.11
44481;BME280;30184;42.018;23.670;2023-02-04T03:17:35;90993.44;;;-2.21;82.95
44481;BME280;30184;42.018;23.670;2023-02-04T03:20:06;91000.91;;;-1.94;83.17
44481;BME280;30184;42.018;23.670;2023-02-04T03:22:36;91071.00;;;-1.35;83.48
44481;BME280;30184;42.018;23.670;2023-02-04T03:25:07;90863.75;;;-2.86;83.50
44481;BME280;30184;42.018;23.670;2023-02-04T03:27:39;91061.06;;;-1.38;83.54
44481;BME280;30184;42.018;23.670;2023-02-04T03:30:10;91056.41;;;-1.48;83.65
44481;BME280;30184;42.018;23.670;2023-02-04T03:32:40;91072.84;;;-1.39;83.89
44481;BME280;30184;42.018;23.670;2023-02-04T03:35:09;91047.75;;;-1.38;83.87
44481;BME280;30184;42.018;23.670;2023-02-04T03:37:38;91055.38;;;-1.40;83.99
44481;BME280;30184;42.018;23.670;2023-02-04T03:40:10;91035.94;;;-1.44;84.11
44481;BME280;30184;42.018;23.670;2023-02-04T03:42:39;90935.06;;;-2.14;84.22
44481;BME280;30184;42.018;23.670;2023-02-04T03:45:09;91027.06;;;-1.62;84.29
44481;BME280;30184;42.018;23.670;2023-02-04T03:47:37;91009.28;;;-1.51;84.20
44481;BME280;30184;42.018;23.670;2023-02-04T03:50:07;91015.72;;;-1.52;84.37
44481;BME280;30184;42.018;23.670;2023-02-04T03:52:37;91027.16;;;-1.52;84.34
44481;BME280;30184;42.018;23.670;2023-02-04T03:55:09;91002.03;;;-1.54;84.49
44481;BME280;30184;42.018;23.670;2023-02-04T03:57:44;90966.16;;;-1.74;84.64
44481;BME280;30184;42.018;23.670;2023-02-04T04:00:14;91028.78;;;-1.80;84.50
44481;BME280;30184;42.018;23.670;2023-02-04T04:02:43;91006.13;;;-1.64;84.98
44481;BME280;30184;42.018;23.670;2023-02-04T04:05:14;90853.84;;;-2.93;84.69
44481;BME280;30184;42.018;23.670;2023-02-04T04:07:44;91010.72;;;-1.61;85.04
44481;BME280;30184;42.018;23.670;2023-02-04T04:10:15;91018.34;;;-1.59;85.07
44481;BME280;30184;42.018;23.670;2023-02-04T04:12:45;91013.41;;;-1.57;85.36
44481;BME280;30184;42.018;23.670;2023-02-04T04:15:14;90827.13;;;-3.11;85.16
44481;BME280;30184;42.018;23.670;2023-02-04T04:17:43;91008.88;;;-1.53;85.36
44481;BME280;30184;42.018;23.670;2023-02-04T04:20:12;91033.50;;;-1.63;85.56
44481;BME280;30184;42.018;23.670;2023-02-04T04:22:41;91006.06;;;-2.15;85.38
44481;BME280;30184;42.018;23.670;2023-02-04T04:25:12;91021.38;;;-1.61;85.57
44481;BME280;30184;42.018;23.670;2023-02-04T04:27:42;90902.34;;;-2.59;85.38
44481;BME280;30184;42.018;23.670;2023-02-04T04:30:11;91016.00;;;-1.68;85.34
44481;BME280;30184;42.018;23.670;2023-02-04T04:32:40;90996.53;;;-1.75;85.49
44481;BME280;30184;42.018;23.670;2023-02-04T04:35:09;91011.41;;;-1.71;85.60
44481;BME280;30184;42.018;23.670;2023-02-04T04:37:38;90939.25;;;-2.10;85.80
44481;BME280;30184;42.018;23.670;2023-02-04T04:40:10;90843.22;;;-2.93;85.61
44481;BME280;30184;42.018;23.670;2023-02-04T04:42:45;90915.69;;;-2.55;85.53
44481;BME280;30184;42.018;23.670;2023-02-04T04:45:28;90796.97;;;-3.29;85.48
44481;BME280;30184;42.018;23.670;2023-02-04T04:48:06;91012.09;;;-2.18;85.67
44481;BME280;30184;42.018;23.670;2023-02-04T04:50:35;91000.75;;;-1.71;85.85
44481;BME280;30184;42.018;23.670;2023-02-04T04:53:03;90999.28;;;-1.68;85.77
44481;BME280;30184;42.018;23.670;2023-02-04T04:55:37;90990.06;;;-1.78;85.70
44481;BME280;30184;42.018;23.670;2023-02-04T04:58:08;90966.75;;;-1.92;85.73
44481;BME280;30184;42.018;23.670;2023-02-04T05:00:38;90985.13;;;-1.76;85.68
44481;BME280;30184;42.018;23.670;2023-02-04T05:03:08;91006.16;;;-1.60;85.72
44481;BME280;30184;42.018;23.670;2023-02-04T05:05:37;91008.84;;;-1.57;85.63
44481;BME280;30184;42.018;23.670;2023-02-04T05:08:07;90895.06;;;-2.69;85.72
44481;BME280;30184;42.018;23.670;2023-02-04T05:10:40;91012.25;;;-1.60;85.77
44481;BME280;30184;42.018;23.670;2023-02-04T05:13:12;91009.22;;;-1.58;85.73
44481;BME280;30184;42.018;23.670;2023-02-04T05:15:41;91001.63;;;-1.56;85.74
44481;BME280;30184;42.018;23.670;2023-02-04T05:19:13;91010.81;;;-1.50;85.90
44481;BME280;30184;42.018;23.670;2023-02-04T05:21:42;91013.13;;;-1.48;85.88
44481;BME280;30184;42.018;23.670;2023-02-04T05:24:11;90942.81;;;-1.95;85.30
44481;BME280;30184;42.018;23.670;2023-02-04T05:26:40;90990.81;;;-2.18;85.08
44481;BME280;30184;42.018;23.670;2023-02-04T05:29:10;90997.38;;;-1.68;85.07
44481;BME280;30184;42.018;23.670;2023-02-04T05:31:39;90992.50;;;-1.59;85.30
44481;BME280;30184;42.018;23.670;2023-02-04T05:34:09;91007.75;;;-1.52;85.71
44481;BME280;30184;42.018;23.670;2023-02-04T05:36:38;90928.78;;;-1.92;85.72
44481;BME280;30184;42.018;23.670;2023-02-04T05:39:07;90932.69;;;-2.23;85.84
44481;BME280;30184;42.018;23.670;2023-02-04T05:41:37;90994.41;;;-1.56;85.78
44481;BME280;30184;42.018;23.670;2023-02-04T05:44:06;91009.72;;;-1.42;86.00
44481;BME280;30184;42.018;23.670;2023-02-04T05:46:37;91005.59;;;-1.39;85.99
44481;BME280;30184;42.018;23.670;2023-02-04T05:49:06;91015.50;;;-1.80;85.78
44481;BME280;30184;42.018;23.670;2023-02-04T05:51:35;91016.22;;;-1.36;85.70
44481;BME280;30184;42.018;23.670;2023-02-04T05:54:04;91012.84;;;-1.33;85.65
44481;BME280;30184;42.018;23.670;2023-02-04T05:56:34;91013.97;;;-1.34;85.52
44481;BME280;30184;42.018;23.670;2023-02-04T05:59:03;90968.13;;;-2.08;85.63
44481;BME280;30184;42.018;23.670;2023-02-04T06:01:32;90929.19;;;-2.68;85.19
44481;BME280;30184;42.018;23.670;2023-02-04T06:04:03;91013.63;;;-1.29;85.36
44481;BME280;30184;42.018;23.670;2023-02-04T06:06:34;90995.31;;;-1.37;85.68
44481;BME280;30184;42.018;23.670;2023-02-04T06:09:03;90929.69;;;-1.74;85.69
44481;BME280;30184;42.018;23.670;2023-02-04T06:11:32;91014.81;;;-1.23;85.84
44481;BME280;30184;42.018;23.670;2023-02-04T06:14:04;91010.25;;;-1.22;85.91
44481;BME280;30184;42.018;23.670;2023-02-04T06:16:33;90762.16;;;-2.83;85.82
44481;BME280;30184;42.018;23.670;2023-02-04T06:19:04;90825.19;;;-3.14;85.91
44481;BME280;30184;42.018;23.670;2023-02-04T06:21:33;90969.06;;;-1.39;85.98
44481;BME280;30184;42.018;23.670;2023-02-04T06:24:05;91013.41;;;-1.06;86.31
44481;BME280;30184;42.018;23.670;2023-02-04T06:26:34;90826.66;;;-2.39;86.03
44481;BME280;30184;42.018;23.670;2023-02-04T06:29:04;90973.69;;;-1.32;86.27
44481;BME280;30184;42.018;23.670;2023-02-04T06:31:33;91012.69;;;-0.99;86.31
44481;BME280;30184;42.018;23.670;2023-02-04T06:34:06;90871.59;;;-2.19;86.05
44481;BME280;30184;42.018;23.670;2023-02-04T06:36:37;90955.91;;;-1.18;86.19
44481;BME280;30184;42.018;23.670;2023-02-04T06:39:06;90897.88;;;-1.60;86.20
44481;BME280;30184;42.018;23.670;2023-02-04T06:41:36;90944.09;;;-1.20;86.12
44481;BME280;30184;42.018;23.670;2023-02-04T06:44:06;91002.56;;;-0.72;86.06
44481;BME280;30184;42.018;23.670;2023-02-04T06:46:41;91001.44;;;-0.64;86.08
44481;BME280;30184;42.018;23.670;2023-02-04T06:49:12;91001.88;;;-0.55;85.97
44481;BME280;30184;42.018;23.670;2023-02-04T06:51:41;90824.84;;;-2.28;85.40
44481;BME280;30184;42.018;23.670;2023-02-04T06:54:11;90997.72;;;-0.46;85.69
44481;BME280;30184;42.018;23.670;2023-02-04T06:56:42;90862.91;;;-2.13;85.47
44481;BME280;30184;42.018;23.670;2023-02-04T06:59:12;90755.50;;;-2.08;85.39
44481;BME280;30184;42.018;23.670;2023-02-04T07:01:42;91003.16;;;-0.28;85.38
44481;BME280;30184;42.018;23.670;2023-02-04T07:04:14;91014.59;;;-0.13;84.95
44481;BME280;30184;42.018;23.670;2023-02-04T07:06:44;90999.00;;;-0.04;84.85
44481;BME280;30184;42.018;23.670;2023-02-04T07:09:13;90871.13;;;-1.16;84.45
44481;BME280;30184;42.018;23.670;2023-02-04T07:11:44;90996.66;;;-0.23;84.00
44481;BME280;30184;42.018;23.670;2023-02-04T07:14:13;91022.75;;;0.51;83.26
44481;BME280;30184;42.018;23.670;2023-02-04T07:16:47;91020.81;;;0.65;82.71
44481;BME280;30184;42.018;23.670;2023-02-04T07:19:19;91020.84;;;0.83;81.96
44481;BME280;30184;42.018;23.670;2023-02-04T07:21:48;91011.69;;;0.73;80.49
44481;BME280;30184;42.018;23.670;2023-02-04T07:24:20;91020.09;;;0.83;80.50
44481;BME280;30184;42.018;23.670;2023-02-04T07:26:50;91001.78;;;0.81;80.69
44481;BME280;30184;42.018;23.670;2023-02-04T07:29:20;90915.59;;;0.20;80.42
44481;BME280;30184;42.018;23.670;2023-02-04T07:31:53;91024.63;;;1.25;80.42
44481;BME280;30184;42.018;23.670;2023-02-04T07:34:23;91006.28;;;1.37;80.07
44481;BME280;30184;42.018;23.670;2023-02-04T07:36:53;91000.94;;;1.34;79.13
44481;BME280;30184;42.018;23.670;2023-02-04T07:39:22;90814.22;;;0.10;78.91
44481;BME280;30184;42.018;23.670;2023-02-04T07:41:54;90941.09;;;0.89;78.86
44481;BME280;30184;42.018;23.670;2023-02-04T07:44:31;90995.53;;;1.55;78.83
44481;BME280;30184;42.018;23.670;2023-02-04T07:47:01;91011.53;;;1.62;78.52
44481;BME280;30184;42.018;23.670;2023-02-04T07:49:32;91003.88;;;1.75;78.51
44481;BME280;30184;42.018;23.670;2023-02-04T07:52:01;90981.28;;;1.79;77.90
44481;BME280;30184;42.018;23.670;2023-02-04T07:54:29;90998.28;;;2.21;77.56
44481;BME280;30184;42.018;23.670;2023-02-04T07:56:59;90856.13;;;1.53;76.90
44481;BME280;30184;42.018;23.670;2023-02-04T07:59:29;90835.53;;;1.43;76.06
44481;BME280;30184;42.018;23.670;2023-02-04T08:01:59;90975.31;;;2.79;75.42
44481;BME280;30184;42.018;23.670;2023-02-04T08:04:34;90978.25;;;3.36;74.40
44481;BME280;30184;42.018;23.670;2023-02-04T08:07:04;90981.03;;;3.63;73.53
44481;BME280;30184;42.018;23.670;2023-02-04T08:09:37;90975.44;;;3.84;72.56
44481;BME280;30184;42.018;23.670;2023-02-04T08:12:10;90982.97;;;3.96;71.89
44481;BME280;30184;42.018;23.670;2023-02-04T08:14:39;90961.78;;;4.02;70.74
44481;BME280;30184;42.018;23.670;2023-02-04T08:17:09;90973.78;;;4.24;70.73
44481;BME280;30184;42.018;23.670;2023-02-04T08:19:43;90856.56;;;3.57;69.78
44481;BME280;30184;42.018;23.670;2023-02-04T08:22:12;90962.69;;;4.49;69.56
44481;BME280;30184;42.018;23.670;2023-02-04T08:24:43;90962.28;;;4.24;68.56
44481;BME280;30184;42.018;23.670;2023-02-04T08:27:12;90923.66;;;4.14;67.49
44481;BME280;30184;42.018;23.670;2023-02-04T08:29:43;91015.75;;;4.68;67.97
44481;BME280;30184;42.018;23.670;2023-02-04T08:32:14;90927.75;;;4.49;67.59
44481;BME280;30184;42.018;23.670;2023-02-04T08:34:46;90952.63;;;5.03;66.84
44481;BME280;30184;42.018;23.670;2023-02-04T08:37:15;90958.19;;;5.16;67.50
44481;BME280;30184;42.018;23.670;2023-02-04T08:39:44;90739.91;;;3.92;65.81
44481;BME280;30184;42.018;23.670;2023-02-04T08:42:15;90946.16;;;5.44;65.25
44481;BME280;30184;42.018;23.670;2023-02-04T08:44:45;90934.72;;;5.59;65.99
44481;BME280;30184;42.018;23.670;2023-02-04T08:47:40;90941.69;;;5.57;62.73
44481;BME280;30184;42.018;23.670;2023-02-04T08:50:11;90982.91;;;5.74;63.46
44481;BME280;30184;42.018;23.670;2023-02-04T08:52:40;90925.94;;;5.75;63.56
44481;BME280;30184;42.018;23.670;2023-02-04T08:55:09;90894.22;;;5.67;63.02
44481;BME280;30184;42.018;23.670;2023-02-04T08:57:38;90880.47;;;5.81;63.03
44481;BME280;30184;42.018;23.670;2023-02-04T09:00:09;90924.72;;;6.19;62.65
44481;BME280;30184;42.018;23.670;2023-02-04T09:02:38;90881.72;;;5.96;61.54
44481;BME280;30184;42.018;23.670;2023-02-04T09:05:11;90914.59;;;6.23;60.94
44481;BME280;30184;42.018;23.670;2023-02-04T09:07:40;90910.84;;;6.21;61.91
44481;BME280;30184;42.018;23.670;2023-02-04T09:10:10;90891.03;;;5.72;61.04
44481;BME280;30184;42.018;23.670;2023-02-04T09:12:50;90922.13;;;6.32;62.18
44481;BME280;30184;42.018;23.670;2023-02-04T09:15:23;90913.63;;;6.50;61.26
44481;BME280;30184;42.018;23.670;2023-02-04T09:17:52;90916.09;;;6.60;61.12
44481;BME280;30184;42.018;23.670;2023-02-04T09:20:29;90909.88;;;6.63;61.21
44481;BME280;30184;42.018;23.670;2023-02-04T09:22:58;90812.41;;;5.80;61.25
44481;BME280;30184;42.018;23.670;2023-02-04T09:25:27;90908.59;;;6.68;62.24
44481;BME280;30184;42.018;23.670;2023-02-04T09:28:05;90800.78;;;6.03;61.15
44481;BME280;30184;42.018;23.670;2023-02-04T09:30:38;90898.25;;;6.99;59.89
44481;BME280;30184;42.018;23.670;2023-02-04T09:33:10;90901.44;;;6.61;59.76
44481;BME280;30184;42.018;23.670;2023-02-04T09:35:43;90895.81;;;6.88;60.26
44481;BME280;30184;42.018;23.670;2023-02-04T09:38:12;90894.53;;;7.09;60.63
44481;BME280;30184;42.018;23.670;2023-02-04T09:40:43;90787.50;;;6.28;58.38
44481;BME280;30184;42.018;23.670;2023-02-04T09:43:19;90891.22;;;7.18;56.85
44481;BME280;30184;42.018;23.670;2023-02-04T09:45:51;90870.34;;;6.89;54.08
44481;BME280;30184;42.018;23.670;2023-02-04T09:48:22;90755.47;;;5.82;52.09
44481;BME280;30184;42.018;23.670;2023-02-04T09:51:02;90748.69;;;6.10;52.33
44481;BME280;30184;42.018;23.670;2023-02-04T09:53:33;90862.94;;;6.93;52.42
44481;BME280;30184;42.018;23.670;2023-02-04T09:56:07;90862.03;;;6.84;53.40
44481;BME280;30184;42.018;23.670;2023-02-04T09:58:53;90875.50;;;6.84;53.08
44481;BME280;30184;42.018;23.670;2023-02-04T10:01:25;90865.91;;;6.66;54.08
44481;BME280;30184;42.018;23.670;2023-02-04T10:03:57;90857.66;;;6.57;54.69
44481;BME280;30184;42.018;23.670;2023-02-04T10:06:30;90857.50;;;6.48;56.94
44481;BME280;30184;42.018;23.670;2023-02-04T10:09:00;90713.66;;;5.25;57.85
44481;BME280;30184;42.018;23.670;2023-02-04T10:11:32;90872.38;;;6.53;57.82
44481;BME280;30184;42.018;23.670;2023-02-04T10:14:02;90869.84;;;6.46;58.70
44481;BME280;30184;42.018;23.670;2023-02-04T10:16:32;90870.34;;;6.41;59.45
44481;BME280;30184;42.018;23.670;2023-02-04T10:19:12;90875.59;;;6.12;62.92
44481;BME280;30184;42.018;23.670;2023-02-04T10:21:43;90869.31;;;6.02;65.34
44481;BME280;30184;42.018;23.670;2023-02-04T10:24:20;90882.47;;;5.77;68.58
44481;BME280;30184;42.018;23.670;2023-02-04T10:27:05;90875.03;;;5.65;69.57
44481;BME280;30184;42.018;23.670;2023-02-04T10:29:35;90861.50;;;5.48;69.67
44481;BME280;30184;42.018;23.670;2023-02-04T10:32:04;90852.06;;;5.40;70.67
44481;BME280;30184;42.018;23.670;2023-02-04T10:34:36;90853.94;;;5.43;70.71
44481;BME280;30184;42.018;23.670;2023-02-04T10:37:18;90858.50;;;5.27;71.91
44481;BME280;30184;42.018;23.670;2023-02-04T10:39:47;90806.66;;;4.83;72.00
44481;BME280;30184;42.018;23.670;2023-02-04T10:42:20;90847.59;;;5.34;71.25
44481;BME280;30184;42.018;23.670;2023-02-04T10:44:50;90698.78;;;3.98;70.90
44481;BME280;30184;42.018;23.670;2023-02-04T10:47:21;90607.22;;;3.50;71.55
44481;BME280;30184;42.018;23.670;2023-02-04T10:49:51;90664.59;;;3.79;70.75
44481;BME280;30184;42.018;23.670;2023-02-04T10:52:25;90819.72;;;5.24;71.55
44481;BME280;30184;42.018;23.670;2023-02-04T10:54:58;90792.53;;;5.38;69.38
44481;BME280;30184;42.018;23.670;2023-02-04T10:57:35;90852.13;;;5.17;69.12
44481;BME280;30184;42.018;23.670;2023-02-04T11:00:15;90806.16;;;5.67;68.13
44481;BME280;30184;42.018;23.670;2023-02-04T11:02:48;90803.25;;;5.58;69.01
44481;BME280;30184;42.018;23.670;2023-02-04T11:05:24;90802.69;;;5.67;68.26
44481;BME280;30184;42.018;23.670;2023-02-04T11:07:58;90727.97;;;5.38;68.22
44481;BME280;30184;42.018;23.670;2023-02-04T11:10:29;90801.44;;;5.91;67.50
44481;BME280;30184;42.018;23.670;2023-02-04T11:13:05;90792.09;;;5.95;66.66
44481;BME280;30184;42.018;23.670;2023-02-04T11:15:40;90568.50;;;4.33;65.58
44481;BME280;30184;42.018;23.670;2023-02-04T11:18:24;90733.72;;;5.56;65.79
44481;BME280;30184;42.018;23.670;2023-02-04T11:20:55;90776.69;;;5.96;64.65
44481;BME280;30184;42.018;23.670;2023-02-04T11:23:44;90779.97;;;6.04;62.91
44481;BME280;30184;42.018;23.670;2023-02-04T11:26:15;90779.41;;;5.96;61.09
44481;BME280;30184;42.018;23.670;2023-02-04T11:28:49;90754.19;;;5.70;61.42
44481;BME280;30184;42.018;23.670;2023-02-04T11:31:38;90782.47;;;5.78;61.09
44481;BME280;30184;42.018;23.670;2023-02-04T11:34:24;90769.72;;;5.62;61.53
44481;BME280;30184;42.018;23.670;2023-02-04T11:37:05;90769.19;;;5.51;61.69
44481;BME280;30184;42.018;23.670;2023-02-04T11:39:41;90770.69;;;5.36;62.38
44481;BME280;30184;42.018;23.670;2023-02-04T11:42:30;90777.59;;;5.37;63.23
44481;BME280;30184;42.018;23.670;2023-02-04T11:45:01;90715.75;;;4.98;63.01
44481;BME280;30184;42.018;23.670;2023-02-04T11:47:34;90743.81;;;5.16;62.46
44481;BME280;30184;42.018;23.670;2023-02-04T11:50:12;90750.75;;;5.14;63.17
44481;BME280;30184;42.018;23.670;2023-02-04T11:52:42;90740.91;;;5.07;64.81
44481;BME280;30184;42.018;23.670;2023-02-04T11:55:14;90735.19;;;5.05;63.46
44481;BME280;30184;42.018;23.670;2023-02-04T11:57:44;90733.47;;;5.15;63.44
44481;BME280;30184;42.018;23.670;2023-02-04T12:00:14;90736.97;;;5.12;63.47
44481;BME280;30184;42.018;23.670;2023-02-04T12:02:46;90537.91;;;3.48;63.83
44481;BME280;30184;42.018;23.670;2023-02-04T12:05:16;90734.84;;;5.03;64.22
44481;BME280;30184;42.018;23.670;2023-02-04T12:07:47;90744.97;;;4.96;64.97
44481;BME280;30184;42.018;23.670;2023-02-04T12:10:24;90727.53;;;4.84;65.42
44481;BME280;30184;42.018;23.670;2023-02-04T12:12:55;90736.34;;;4.84;68.26
44481;BME280;30184;42.018;23.670;2023-02-04T12:15:31;90739.44;;;4.83;67.63
44481;BME280;30184;42.018;23.670;2023-02-04T12:18:04;90742.09;;;4.86;67.59
44481;BME280;30184;42.018;23.670;2023-02-04T12:20:34;90648.00;;;4.27;68.01
44481;BME280;30184;42.018;23.670;2023-02-04T12:23:04;90676.91;;;4.43;68.19
44481;BME280;30184;42.018;23.670;2023-02-04T12:25:34;90735.94;;;4.86;68.57
44481;BME280;30184;42.018;23.670;2023-02-04T12:28:07;90732.44;;;4.89;68.35
44481;BME280;30184;42.018;23.670;2023-02-04T12:30:39;90738.69;;;4.82;68.80
44481;BME280;30184;42.018;23.670;2023-02-04T12:33:08;90735.69;;;4.80;69.16
44481;BME280;30184;42.018;23.670;2023-02-04T12:35:37;90714.09;;;4.44;70.99
44481;BME280;30184;42.018;23.670;2023-02-04T12:38:06;90607.09;;;3.57;71.72
44481;BME280;30184;42.018;23.670;2023-02-04T12:40:37;90651.25;;;3.75;69.99
44481;BME280;30184;42.018;23.670;2023-02-04T12:43:06;90737.50;;;4.64;69.63
44481;BME280;30184;42.018;23.670;2023-02-04T12:45:35;90769.50;;;4.35;70.91
44481;BME280;30184;42.018;23.670;2023-02-04T12:48:06;90649.59;;;3.82;70.62
44481;BME280;30184;42.018;23.670;2023-02-04T12:50:35;90730.91;;;4.48;71.38
44481;BME280;30184;42.018;23.670;2023-02-04T12:53:04;90598.81;;;3.48;71.46
44481;BME280;30184;42.018;23.670;2023-02-04T12:55:48;90693.56;;;4.11;72.18
44481;BME280;30184;42.018;23.670;2023-02-04T12:58:19;90737.03;;;4.49;72.83
44481;BME280;30184;42.018;23.670;2023-02-04T13:00:48;90742.03;;;4.47;72.15
44481;BME280;30184;42.018;23.670;2023-02-04T13:03:17;90684.78;;;3.87;72.09
44481;BME280;30184;42.018;23.670;2023-02-04T13:05:46;90655.13;;;3.71;72.82
44481;BME280;30184;42.018;23.670;2023-02-04T13:08:15;90657.72;;;3.55;72.91
44481;BME280;30184;42.018;23.670;2023-02-04T13:10:45;90754.50;;;4.37;73.64
44481;BME280;30184;42.018;23.670;2023-02-04T13:13:20;90644.06;;;3.46;74.45
44481;BME280;30184;42.018;23.670;2023-02-04T13:15:50;90758.34;;;4.36;74.87
44481;BME280;30184;42.018;23.670;2023-02-04T13:18:19;90770.38;;;4.28;74.59